Terminal Aerodrome Forecast
Issued by NWS

Home | Current Version | Previous Version | Text Only | Print | Product List | Glossary On
Versions: 1 2 3 4 5 6 7 8 9 10 11 12 13 14 15 16 17 18
000
FTAK31 PAJN 220313 AAA
TAFAGY
TAF AMD
PAGY 220313Z 2203/2224 23005KT P6SM VCSH FEW020 SCT025 OVC060
      TEMPO 2203/2206 1SM -RA BR
     FM220600 VRB03KT 6SM -RA BR SCT015 OVC025
     FM221300 00000KT P6SM OVC030
     FM221900 VRB03KT P6SM -RA OVC050
      AMD LTD TO CLD VIS AND WIND=

USA.gov is the U.S. government's official web portal to all federal, state and local government web resources and services.